sensor_id;sensor_type;location;lat;lon;timestamp;temperature;humidity
3925;DHT22;1977;52.274;10.518;2023-10-09T00:01:25;15.70;99.90
3925;DHT22;1977;52.274;10.518;2023-10-09T00:03:52;15.70;99.90
3925;DHT22;1977;52.274;10.518;2023-10-09T00:06:22;16.00;99.90
3925;DHT22;1977;52.274;10.518;2023-10-09T00:08:58;15.80;99.90
3925;DHT22;1977;52.274;10.518;2023-10-09T00:11:37;15.80;99.90
3925;DHT22;1977;52.274;10.518;2023-10-09T00:14:07;15.80;99.90
3925;DHT22;1977;52.274;10.518;2023-10-09T00:16:34;15.80;99.90
3925;DHT22;1977;52.274;10.518;2023-10-09T00:19:03;16.10;99.90
3925;DHT22;1977;52.274;10.518;2023-10-09T00:21:40;15.70;99.90
3925;DHT22;1977;52.274;10.518;2023-10-09T00:24:09;15.60;99.90
3925;DHT22;1977;52.274;10.518;2023-10-09T00:26:40;15.60;99.90
3925;DHT22;1977;52.274;10.518;2023-10-09T00:29:11;15.60;99.90
3925;DHT22;1977;52.274;10.518;2023-10-09T00:31:48;15.70;99.90
3925;DHT22;1977;52.274;10.518;2023-10-09T00:34:22;15.90;99.90
3925;DHT22;1977;52.274;10.518;2023-10-09T00:36:51;15.60;99.90
3925;DHT22;1977;52.274;10.518;2023-10-09T00:39:21;15.60;99.90
3925;DHT22;1977;52.274;10.518;2023-10-09T00:42:09;15.70;99.90
3925;DHT22;1977;52.274;10.518;2023-10-09T00:44:38;15.60;99.90
3925;DHT22;1977;52.274;10.518;2023-10-09T00:47:07;15.60;99.90
3925;DHT22;1977;52.274;10.518;2023-10-09T00:49:50;15.70;99.90
3925;DHT22;1977;52.274;10.518;2023-10-09T00:52:20;15.60;99.90
3925;DHT22;1977;52.274;10.518;2023-10-09T00:54:58;15.60;99.90
3925;DHT22;1977;52.274;10.518;2023-10-09T00:57:31;15.50;99.90
3925;DHT22;1977;52.274;10.518;2023-10-09T01:00:01;15.80;99.90
3925;DHT22;1977;52.274;10.518;2023-10-09T01:02:39;15.30;99.90
3925;DHT22;1977;52.274;10.518;2023-10-09T01:05:08;15.70;99.90
3925;DHT22;1977;52.274;10.518;2023-10-09T01:07:48;15.40;99.90
3925;DHT22;1977;52.274;10.518;2023-10-09T01:10:25;15.50;99.90
3925;DHT22;1977;52.274;10.518;2023-10-09T01:12:59;15.50;99.90
3925;DHT22;1977;52.274;10.518;2023-10-09T01:15:26;15.70;99.90
3925;DHT22;1977;52.274;10.518;2023-10-09T01:18:09;15.70;99.90
3925;DHT22;1977;52.274;10.518;2023-10-09T01:20:36;15.40;99.90
3925;DHT22;1977;52.274;10.518;2023-10-09T01:23:10;15.30;99.90
3925;DHT22;1977;52.274;10.518;2023-10-09T01:25:37;15.30;99.90
3925;DHT22;1977;52.274;10.518;2023-10-09T01:28:15;15.30;99.90
3925;DHT22;1977;52.274;10.518;2023-10-09T01:30:42;15.30;99.90
3925;DHT22;1977;52.274;10.518;2023-10-09T01:33:11;15.40;99.90
3925;DHT22;1977;52.274;10.518;2023-10-09T01:35:50;15.40;99.90
3925;DHT22;1977;52.274;10.518;2023-10-09T01:38:25;15.40;99.90
3925;DHT22;1977;52.274;10.518;2023-10-09T01:41:07;15.30;99.90
3925;DHT22;1977;52.274;10.518;2023-10-09T01:43:34;15.40;99.90
3925;DHT22;1977;52.274;10.518;2023-10-09T01:46:01;15.40;99.90
3925;DHT22;1977;52.274;10.518;2023-10-09T01:48:30;15.50;99.90
3925;DHT22;1977;52.274;10.518;2023-10-09T01:51:01;15.50;99.90
3925;DHT22;1977;52.274;10.518;2023-10-09T01:53:32;15.40;99.90
3925;DHT22;1977;52.274;10.518;2023-10-09T01:56:08;15.40;99.90
3925;DHT22;1977;52.274;10.518;2023-10-09T01:58:37;15.60;99.90
3925;DHT22;1977;52.274;10.518;2023-10-09T02:01:04;15.60;99.90
3925;DHT22;1977;52.274;10.518;2023-10-09T02:03:31;15.50;99.90
3925;DHT22;1977;52.274;10.518;2023-10-09T02:06:02;15.60;99.90
3925;DHT22;1977;52.274;10.518;2023-10-09T02:08:31;15.60;99.90
3925;DHT22;1977;52.274;10.518;2023-10-09T02:11:01;15.50;99.90
3925;DHT22;1977;52.274;10.518;2023-10-09T02:13:29;15.60;99.90
3925;DHT22;1977;52.274;10.518;2023-10-09T02:16:00;15.40;99.90
3925;DHT22;1977;52.274;10.518;2023-10-09T02:18:38;15.50;99.90
3925;DHT22;1977;52.274;10.518;2023-10-09T02:21:19;15.40;99.90
3925;DHT22;1977;52.274;10.518;2023-10-09T02:24:01;15.40;99.90
3925;DHT22;1977;52.274;10.518;2023-10-09T02:26:31;15.40;99.90
3925;DHT22;1977;52.274;10.518;2023-10-09T02:29:20;15.50;99.90
3925;DHT22;1977;52.274;10.518;2023-10-09T02:31:49;15.50;99.90
3925;DHT22;1977;52.274;10.518;2023-10-09T02:34:18;15.40;99.90
3925;DHT22;1977;52.274;10.518;2023-10-09T02:36:48;15.30;99.90
3925;DHT22;1977;52.274;10.518;2023-10-09T02:39:24;15.30;99.90
3925;DHT22;1977;52.274;10.518;2023-10-09T02:41:54;15.30;99.90
3925;DHT22;1977;52.274;10.518;2023-10-09T02:44:26;15.30;99.90
3925;DHT22;1977;52.274;10.518;2023-10-09T02:46:57;15.30;99.90
3925;DHT22;1977;52.274;10.518;2023-10-09T02:49:24;15.70;99.90
3925;DHT22;1977;52.274;10.518;2023-10-09T02:51:52;15.50;99.90
3925;DHT22;1977;52.274;10.518;2023-10-09T02:54:19;15.50;99.90
3925;DHT22;1977;52.274;10.518;2023-10-09T02:56:53;15.40;99.90
3925;DHT22;1977;52.274;10.518;2023-10-09T02:59:23;15.40;99.90
3925;DHT22;1977;52.274;10.518;2023-10-09T03:01:50;15.40;99.90
3925;DHT22;1977;52.274;10.518;2023-10-09T03:04:18;15.40;99.90
3925;DHT22;1977;52.274;10.518;2023-10-09T03:06:45;15.60;99.90
3925;DHT22;1977;52.274;10.518;2023-10-09T03:09:15;15.60;99.90
3925;DHT22;1977;52.274;10.518;2023-10-09T03:11:54;15.40;99.90
3925;DHT22;1977;52.274;10.518;2023-10-09T03:14:28;15.30;99.90
3925;DHT22;1977;52.274;10.518;2023-10-09T03:16:54;15.30;99.90
3925;DHT22;1977;52.274;10.518;2023-10-09T03:19:21;15.20;99.90
3925;DHT22;1977;52.274;10.518;2023-10-09T03:21:48;15.20;99.90
3925;DHT22;1977;52.274;10.518;2023-10-09T03:24:16;15.20;99.90
3925;DHT22;1977;52.274;10.518;2023-10-09T03:26:43;15.20;99.90
3925;DHT22;1977;52.274;10.518;2023-10-09T03:29:13;15.10;99.90
3925;DHT22;1977;52.274;10.518;2023-10-09T03:31:40;15.10;99.90
3925;DHT22;1977;52.274;10.518;2023-10-09T03:34:08;15.10;99.90
3925;DHT22;1977;52.274;10.518;2023-10-09T03:36:36;15.10;99.90
3925;DHT22;1977;52.274;10.518;2023-10-09T03:39:04;15.10;99.90
3925;DHT22;1977;52.274;10.518;2023-10-09T03:41:43;15.00;99.90
3925;DHT22;1977;52.274;10.518;2023-10-09T03:44:13;15.00;99.90
3925;DHT22;1977;52.274;10.518;2023-10-09T03:46:43;15.00;99.90
3925;DHT22;1977;52.274;10.518;2023-10-09T03:49:11;14.90;99.90
3925;DHT22;1977;52.274;10.518;2023-10-09T03:51:39;14.90;99.90
3925;DHT22;1977;52.274;10.518;2023-10-09T03:54:07;14.90;99.90
3925;DHT22;1977;52.274;10.518;2023-10-09T03:56:35;14.90;99.90
3925;DHT22;1977;52.274;10.518;2023-10-09T03:59:02;14.90;99.90
3925;DHT22;1977;52.274;10.518;2023-10-09T04:01:31;14.90;99.90
3925;DHT22;1977;52.274;10.518;2023-10-09T04:04:04;14.90;99.90
3925;DHT22;1977;52.274;10.518;2023-10-09T04:06:33;14.80;99.90
3925;DHT22;1977;52.274;10.518;2023-10-09T04:09:01;14.90;99.90
3925;DHT22;1977;52.274;10.518;2023-10-09T04:11:39;14.90;99.90
3925;DHT22;1977;52.274;10.518;2023-10-09T04:14:08;14.80;99.90
3925;DHT22;1977;52.274;10.518;2023-10-09T04:16:46;14.90;99.90
3925;DHT22;1977;52.274;10.518;2023-10-09T04:19:29;15.00;99.90
3925;DHT22;1977;52.274;10.518;2023-10-09T04:22:04;14.80;99.90
3925;DHT22;1977;52.274;10.518;2023-10-09T04:24:33;14.90;99.90
3925;DHT22;1977;52.274;10.518;2023-10-09T04:27:07;15.10;99.90
3925;DHT22;1977;52.274;10.518;2023-10-09T04:29:34;14.90;99.90
3925;DHT22;1977;52.274;10.518;2023-10-09T04:32:06;15.10;99.90
3925;DHT22;1977;52.274;10.518;2023-10-09T04:34:41;14.90;99.90
3925;DHT22;1977;52.274;10.518;2023-10-09T04:37:14;15.10;99.90
3925;DHT22;1977;52.274;10.518;2023-10-09T04:39:49;14.90;99.90
3925;DHT22;1977;52.274;10.518;2023-10-09T04:42:27;15.10;99.90
3925;DHT22;1977;52.274;10.518;2023-10-09T04:45:03;15.00;99.90
3925;DHT22;1977;52.274;10.518;2023-10-09T04:48:08;15.00;99.90
3925;DHT22;1977;52.274;10.518;2023-10-09T04:50:35;15.30;99.90
3925;DHT22;1977;52.274;10.518;2023-10-09T04:53:28;15.20;99.90
3925;DHT22;1977;52.274;10.518;2023-10-09T04:55:54;15.10;99.90
3925;DHT22;1977;52.274;10.518;2023-10-09T04:58:23;15.20;99.90
3925;DHT22;1977;52.274;10.518;2023-10-09T05:00:52;15.10;99.90
3925;DHT22;1977;52.274;10.518;2023-10-09T05:03:37;15.10;99.90
3925;DHT22;1977;52.274;10.518;2023-10-09T05:06:10;15.20;99.90
3925;DHT22;1977;52.274;10.518;2023-10-09T05:08:47;15.20;99.90
3925;DHT22;1977;52.274;10.518;2023-10-09T05:11:14;15.20;99.90
3925;DHT22;1977;52.274;10.518;2023-10-09T05:13:58;15.20;99.90
3925;DHT22;1977;52.274;10.518;2023-10-09T05:16:37;15.30;99.90
3925;DHT22;1977;52.274;10.518;2023-10-09T05:19:04;15.60;99.90
3925;DHT22;1977;52.274;10.518;2023-10-09T05:21:34;15.30;99.90
3925;DHT22;1977;52.274;10.518;2023-10-09T05:24:11;15.40;99.90
3925;DHT22;1977;52.274;10.518;2023-10-09T05:26:46;15.40;99.90
3925;DHT22;1977;52.274;10.518;2023-10-09T05:29:18;15.40;99.90
3925;DHT22;1977;52.274;10.518;2023-10-09T05:32:00;15.40;99.90
3925;DHT22;1977;52.274;10.518;2023-10-09T05:34:32;15.40;99.90
3925;DHT22;1977;52.274;10.518;2023-10-09T05:37:21;15.40;99.90
3925;DHT22;1977;52.274;10.518;2023-10-09T05:39:51;15.50;99.90
3925;DHT22;1977;52.274;10.518;2023-10-09T05:42:45;15.60;99.90
3925;DHT22;1977;52.274;10.518;2023-10-09T05:45:12;15.60;99.90
3925;DHT22;1977;52.274;10.518;2023-10-09T05:47:59;15.60;99.90
3925;DHT22;1977;52.274;10.518;2023-10-09T05:50:33;15.80;99.90
3925;DHT22;1977;52.274;10.518;2023-10-09T05:53:00;15.70;99.90
3925;DHT22;1977;52.274;10.518;2023-10-09T05:55:52;15.60;99.90
3925;DHT22;1977;52.274;10.518;2023-10-09T05:58:36;15.70;99.90
3925;DHT22;1977;52.274;10.518;2023-10-09T06:01:29;15.80;99.90
3925;DHT22;1977;52.274;10.518;2023-10-09T06:04:13;15.80;99.90
3925;DHT22;1977;52.274;10.518;2023-10-09T06:06:44;15.80;99.90
3925;DHT22;1977;52.274;10.518;2023-10-09T06:09:12;15.80;99.90
3925;DHT22;1977;52.274;10.518;2023-10-09T06:11:56;15.90;99.90
3925;DHT22;1977;52.274;10.518;2023-10-09T06:14:37;15.90;99.90
3925;DHT22;1977;52.274;10.518;2023-10-09T06:17:23;15.90;99.90
3925;DHT22;1977;52.274;10.518;2023-10-09T06:19:50;15.90;99.90
3925;DHT22;1977;52.274;10.518;2023-10-09T06:22:25;16.00;99.90
3925;DHT22;1977;52.274;10.518;2023-10-09T06:25:09;16.00;99.90
3925;DHT22;1977;52.274;10.518;2023-10-09T06:27:37;16.00;99.90
3925;DHT22;1977;52.274;10.518;2023-10-09T06:30:21;16.10;99.90
3925;DHT22;1977;52.274;10.518;2023-10-09T06:32:52;16.20;99.90
3925;DHT22;1977;52.274;10.518;2023-10-09T06:35:24;16.20;99.90
3925;DHT22;1977;52.274;10.518;2023-10-09T06:37:58;16.30;99.90
3925;DHT22;1977;52.274;10.518;2023-10-09T06:40:48;16.40;99.90
3925;DHT22;1977;52.274;10.518;2023-10-09T06:43:32;16.50;99.90
3925;DHT22;1977;52.274;10.518;2023-10-09T06:46:02;16.50;99.90
3925;DHT22;1977;52.274;10.518;2023-10-09T06:49:09;16.60;99.90
3925;DHT22;1977;52.274;10.518;2023-10-09T06:51:55;16.70;99.90
3925;DHT22;1977;52.274;10.518;2023-10-09T06:54:42;16.70;99.90
3925;DHT22;1977;52.274;10.518;2023-10-09T06:57:17;16.80;99.90
3925;DHT22;1977;52.274;10.518;2023-10-09T07:00:05;16.80;99.90
3925;DHT22;1977;52.274;10.518;2023-10-09T07:02:50;16.80;99.90
3925;DHT22;1977;52.274;10.518;2023-10-09T07:05:19;16.90;99.90
3925;DHT22;1977;52.274;10.518;2023-10-09T07:07:44;16.90;99.90
3925;DHT22;1977;52.274;10.518;2023-10-09T07:10:22;17.00;99.90
3925;DHT22;1977;52.274;10.518;2023-10-09T07:12:59;17.00;99.90
3925;DHT22;1977;52.274;10.518;2023-10-09T07:15:27;17.30;99.90
3925;DHT22;1977;52.274;10.518;2023-10-09T07:18:12;17.10;99.90
3925;DHT22;1977;52.274;10.518;2023-10-09T07:20:55;17.10;99.90
3925;DHT22;1977;52.274;10.518;2023-10-09T07:23:36;17.20;99.90
3925;DHT22;1977;52.274;10.518;2023-10-09T07:26:14;17.20;99.90
3925;DHT22;1977;52.274;10.518;2023-10-09T07:28:48;17.20;99.90
3925;DHT22;1977;52.274;10.518;2023-10-09T07:31:19;17.20;99.90
3925;DHT22;1977;52.274;10.518;2023-10-09T07:33:53;17.20;99.90
3925;DHT22;1977;52.274;10.518;2023-10-09T07:36:46;17.20;99.90
3925;DHT22;1977;52.274;10.518;2023-10-09T07:39:15;17.20;99.90
3925;DHT22;1977;52.274;10.518;2023-10-09T07:41:44;17.20;99.90
3925;DHT22;1977;52.274;10.518;2023-10-09T07:44:22;17.30;99.90
3925;DHT22;1977;52.274;10.518;2023-10-09T07:47:02;17.30;99.90
3925;DHT22;1977;52.274;10.518;2023-10-09T07:49:45;17.30;99.90
3925;DHT22;1977;52.274;10.518;2023-10-09T07:52:19;17.30;99.90
3925;DHT22;1977;52.274;10.518;2023-10-09T07:54:48;17.30;99.90
3925;DHT22;1977;52.274;10.518;2023-10-09T07:57:21;17.30;99.90
3925;DHT22;1977;52.274;10.518;2023-10-09T07:59:52;17.30;99.90
3925;DHT22;1977;52.274;10.518;2023-10-09T08:02:28;17.40;99.90
3925;DHT22;1977;52.274;10.518;2023-10-09T08:04:59;17.20;99.90
3925;DHT22;1977;52.274;10.518;2023-10-09T08:07:29;17.20;99.90
3925;DHT22;1977;52.274;10.518;2023-10-09T08:10:01;17.30;99.90
3925;DHT22;1977;52.274;10.518;2023-10-09T08:12:52;17.30;99.90
3925;DHT22;1977;52.274;10.518;2023-10-09T08:15:25;17.30;99.90
3925;DHT22;1977;52.274;10.518;2023-10-09T08:17:54;17.30;99.90
3925;DHT22;1977;52.274;10.518;2023-10-09T08:20:25;17.30;99.90
3925;DHT22;1977;52.274;10.518;2023-10-09T08:22:52;17.30;99.90
3925;DHT22;1977;52.274;10.518;2023-10-09T08:25:21;17.30;99.90
3925;DHT22;1977;52.274;10.518;2023-10-09T08:28:00;17.30;99.90
3925;DHT22;1977;52.274;10.518;2023-10-09T08:30:44;17.30;99.90
3925;DHT22;1977;52.274;10.518;2023-10-09T08:33:28;17.40;99.90
3925;DHT22;1977;52.274;10.518;2023-10-09T08:36:06;17.30;99.90
3925;DHT22;1977;52.274;10.518;2023-10-09T08:38:35;17.30;99.90
3925;DHT22;1977;52.274;10.518;2023-10-09T08:41:09;17.40;99.90
3925;DHT22;1977;52.274;10.518;2023-10-09T08:43:48;17.40;99.90
3925;DHT22;1977;52.274;10.518;2023-10-09T08:46:22;17.40;99.90
3925;DHT22;1977;52.274;10.518;2023-10-09T08:48:52;17.60;99.90
3925;DHT22;1977;52.274;10.518;2023-10-09T08:51:19;17.30;99.90
3925;DHT22;1977;52.274;10.518;2023-10-09T08:53:46;17.40;99.90
3925;DHT22;1977;52.274;10.518;2023-10-09T08:56:13;17.40;99.90
3925;DHT22;1977;52.274;10.518;2023-10-09T08:58:49;17.30;99.90
3925;DHT22;1977;52.274;10.518;2023-10-09T09:01:17;17.30;99.90
3925;DHT22;1977;52.274;10.518;2023-10-09T09:03:48;17.30;99.90
3925;DHT22;1977;52.274;10.518;2023-10-09T09:06:17;17.40;99.90
3925;DHT22;1977;52.274;10.518;2023-10-09T09:08:45;17.30;99.90
3925;DHT22;1977;52.274;10.518;2023-10-09T09:11:13;17.30;99.90
3925;DHT22;1977;52.274;10.518;2023-10-09T09:13:44;17.30;99.90
3925;DHT22;1977;52.274;10.518;2023-10-09T09:16:20;17.60;99.90
3925;DHT22;1977;52.274;10.518;2023-10-09T09:18:52;17.30;99.90
3925;DHT22;1977;52.274;10.518;2023-10-09T09:21:26;17.30;99.90
3925;DHT22;1977;52.274;10.518;2023-10-09T09:23:57;17.30;99.90
3925;DHT22;1977;52.274;10.518;2023-10-09T09:26:34;17.30;99.90
3925;DHT22;1977;52.274;10.518;2023-10-09T09:29:04;17.70;99.90
3925;DHT22;1977;52.274;10.518;2023-10-09T09:31:34;17.30;99.90
3925;DHT22;1977;52.274;10.518;2023-10-09T09:34:04;17.60;99.90
3925;DHT22;1977;52.274;10.518;2023-10-09T09:36:49;17.40;99.90
3925;DHT22;1977;52.274;10.518;2023-10-09T09:39:21;17.40;99.90
3925;DHT22;1977;52.274;10.518;2023-10-09T09:41:58;17.40;99.90
3925;DHT22;1977;52.274;10.518;2023-10-09T09:44:32;17.40;99.90
3925;DHT22;1977;52.274;10.518;2023-10-09T09:47:12;17.70;99.90
3925;DHT22;1977;52.274;10.518;2023-10-09T09:49:48;17.50;99.90
3925;DHT22;1977;52.274;10.518;2023-10-09T09:52:18;17.50;99.90
3925;DHT22;1977;52.274;10.518;2023-10-09T09:54:50;17.50;99.90
3925;DHT22;1977;52.274;10.518;2023-10-09T09:57:20;17.50;99.90
3925;DHT22;1977;52.274;10.518;2023-10-09T09:59:52;17.50;99.90
3925;DHT22;1977;52.274;10.518;2023-10-09T10:02:27;17.50;99.90
3925;DHT22;1977;52.274;10.518;2023-10-09T10:05:02;17.80;99.90
3925;DHT22;1977;52.274;10.518;2023-10-09T10:07:32;17.70;99.90
3925;DHT22;1977;52.274;10.518;2023-10-09T10:10:34;17.60;99.90
3925;DHT22;1977;52.274;10.518;2023-10-09T10:13:03;17.60;99.90
3925;DHT22;1977;52.274;10.518;2023-10-09T10:15:58;17.60;99.90
3925;DHT22;1977;52.274;10.518;2023-10-09T10:18:30;17.70;99.90
3925;DHT22;1977;52.274;10.518;2023-10-09T10:21:11;17.30;99.90
3925;DHT22;1977;52.274;10.518;2023-10-09T10:23:42;17.70;99.90
3925;DHT22;1977;52.274;10.518;2023-10-09T10:26:19;18.00;99.90
3925;DHT22;1977;52.274;10.518;2023-10-09T10:29:13;17.80;99.90
3925;DHT22;1977;52.274;10.518;2023-10-09T10:31:55;17.80;99.90
3925;DHT22;1977;52.274;10.518;2023-10-09T10:34:24;18.00;99.90
3925;DHT22;1977;52.274;10.518;2023-10-09T10:36:51;17.80;99.90
3925;DHT22;1977;52.274;10.518;2023-10-09T10:39:28;18.10;99.90
3925;DHT22;1977;52.274;10.518;2023-10-09T10:42:09;17.90;99.90
3925;DHT22;1977;52.274;10.518;2023-10-09T10:44:41;17.90;99.90
3925;DHT22;1977;52.274;10.518;2023-10-09T10:47:12;17.90;99.90
3925;DHT22;1977;52.274;10.518;2023-10-09T10:49:52;18.00;99.90
3925;DHT22;1977;52.274;10.518;2023-10-09T10:52:24;18.00;99.90
3925;DHT22;1977;52.274;10.518;2023-10-09T10:55:11;18.00;99.90
3925;DHT22;1977;52.274;10.518;2023-10-09T10:58:15;18.00;99.90
3925;DHT22;1977;52.274;10.518;2023-10-09T11:00:52;18.40;99.90
3925;DHT22;1977;52.274;10.518;2023-10-09T11:03:36;18.20;99.90
3925;DHT22;1977;52.274;10.518;2023-10-09T11:06:26;18.10;99.90
3925;DHT22;1977;52.274;10.518;2023-10-09T11:09:02;18.10;99.90
3925;DHT22;1977;52.274;10.518;2023-10-09T11:11:37;18.10;99.90
3925;DHT22;1977;52.274;10.518;2023-10-09T11:14:12;18.40;99.90
3925;DHT22;1977;52.274;10.518;2023-10-09T11:16:40;18.20;99.90
3925;DHT22;1977;52.274;10.518;2023-10-09T11:19:13;18.30;99.90
3925;DHT22;1977;52.274;10.518;2023-10-09T11:21:56;18.20;99.90
3925;DHT22;1977;52.274;10.518;2023-10-09T11:24:49;18.20;99.90
3925;DHT22;1977;52.274;10.518;2023-10-09T11:27:36;18.20;99.90
3925;DHT22;1977;52.274;10.518;2023-10-09T11:30:06;18.60;99.90
3925;DHT22;1977;52.274;10.518;2023-10-09T11:32:36;18.30;99.90
3925;DHT22;1977;52.274;10.518;2023-10-09T11:35:11;18.50;99.90
3925;DHT22;1977;52.274;10.518;2023-10-09T11:37:41;18.30;99.90
3925;DHT22;1977;52.274;10.518;2023-10-09T11:40:27;18.60;99.90
3925;DHT22;1977;52.274;10.518;2023-10-09T11:43:00;18.60;99.90
3925;DHT22;1977;52.274;10.518;2023-10-09T11:45:27;18.60;99.90
3925;DHT22;1977;52.274;10.518;2023-10-09T11:47:56;18.30;99.90
3925;DHT22;1977;52.274;10.518;2023-10-09T11:50:42;18.60;99.90
3925;DHT22;1977;52.274;10.518;2023-10-09T11:53:18;18.70;99.90
3925;DHT22;1977;52.274;10.518;2023-10-09T11:55:59;18.30;99.90
3925;DHT22;1977;52.274;10.518;2023-10-09T11:58:26;18.30;99.90
3925;DHT22;1977;52.274;10.518;2023-10-09T12:00:53;18.30;99.90
3925;DHT22;1977;52.274;10.518;2023-10-09T12:03:23;18.30;99.90
3925;DHT22;1977;52.274;10.518;2023-10-09T12:05:54;18.30;99.90
3925;DHT22;1977;52.274;10.518;2023-10-09T12:08:23;18.30;99.90
3925;DHT22;1977;52.274;10.518;2023-10-09T12:10:53;18.30;99.90
3925;DHT22;1977;52.274;10.518;2023-10-09T12:13:21;18.30;99.90
3925;DHT22;1977;52.274;10.518;2023-10-09T12:15:49;18.30;99.90
3925;DHT22;1977;52.274;10.518;2023-10-09T12:18:17;18.40;99.90
3925;DHT22;1977;52.274;10.518;2023-10-09T12:20:44;18.60;99.90
3925;DHT22;1977;52.274;10.518;2023-10-09T12:23:16;18.70;99.90
3925;DHT22;1977;52.274;10.518;2023-10-09T12:25:45;18.60;99.90
3925;DHT22;1977;52.274;10.518;2023-10-09T12:28:12;18.40;99.90
3925;DHT22;1977;52.274;10.518;2023-10-09T12:30:40;18.40;99.90
3925;DHT22;1977;52.274;10.518;2023-10-09T12:33:08;18.40;99.90
3925;DHT22;1977;52.274;10.518;2023-10-09T12:35:39;18.40;99.90
3925;DHT22;1977;52.274;10.518;2023-10-09T12:38:07;18.40;99.90
3925;DHT22;1977;52.274;10.518;2023-10-09T12:40:35;18.80;99.90
3925;DHT22;1977;52.274;10.518;2023-10-09T12:43:05;18.40;99.90
3925;DHT22;1977;52.274;10.518;2023-10-09T12:45:41;18.70;99.90
3925;DHT22;1977;52.274;10.518;2023-10-09T12:48:07;18.60;99.90
3925;DHT22;1977;52.274;10.518;2023-10-09T12:50:35;18.30;99.90
3925;DHT22;1977;52.274;10.518;2023-10-09T12:53:07;18.60;99.90
3925;DHT22;1977;52.274;10.518;2023-10-09T12:55:38;18.40;99.90
3925;DHT22;1977;52.274;10.518;2023-10-09T12:58:08;18.10;99.90
3925;DHT22;1977;52.274;10.518;2023-10-09T13:00:36;18.10;99.90
3925;DHT22;1977;52.274;10.518;2023-10-09T13:03:10;18.10;99.90
3925;DHT22;1977;52.274;10.518;2023-10-09T13:05:44;18.00;99.90
3925;DHT22;1977;52.274;10.518;2023-10-09T13:08:18;18.00;99.90
3925;DHT22;1977;52.274;10.518;2023-10-09T13:10:47;18.00;99.90
3925;DHT22;1977;52.274;10.518;2023-10-09T13:13:22;18.20;99.90
3925;DHT22;1977;52.274;10.518;2023-10-09T13:15:48;18.00;99.90
3925;DHT22;1977;52.274;10.518;2023-10-09T13:18:15;17.90;99.90
3925;DHT22;1977;52.274;10.518;2023-10-09T13:20:42;17.90;99.90
3925;DHT22;1977;52.274;10.518;2023-10-09T13:23:10;17.90;99.90
3925;DHT22;1977;52.274;10.518;2023-10-09T13:25:40;18.20;99.90
3925;DHT22;1977;52.274;10.518;2023-10-09T13:28:07;18.20;99.90
3925;DHT22;1977;52.274;10.518;2023-10-09T13:30:38;17.90;99.90
3925;DHT22;1977;52.274;10.518;2023-10-09T13:33:14;17.90;99.90
3925;DHT22;1977;52.274;10.518;2023-10-09T13:35:42;18.20;99.90
3925;DHT22;1977;52.274;10.518;2023-10-09T13:38:13;18.10;99.90
3925;DHT22;1977;52.274;10.518;2023-10-09T13:40:42;17.80;99.90
3925;DHT22;1977;52.274;10.518;2023-10-09T13:43:09;17.80;99.90
3925;DHT22;1977;52.274;10.518;2023-10-09T13:45:43;18.10;99.90
3925;DHT22;1977;52.274;10.518;2023-10-09T13:48:15;17.90;99.90
3925;DHT22;1977;52.274;10.518;2023-10-09T13:50:43;18.00;99.90
3925;DHT22;1977;52.274;10.518;2023-10-09T13:53:10;18.20;99.90
3925;DHT22;1977;52.274;10.518;2023-10-09T13:55:38;17.80;99.90
3925;DHT22;1977;52.274;10.518;2023-10-09T13:58:08;17.80;99.90
3925;DHT22;1977;52.274;10.518;2023-10-09T14:00:39;18.20;99.90
3925;DHT22;1977;52.274;10.518;2023-10-09T14:03:09;18.10;99.90
3925;DHT22;1977;52.274;10.518;2023-10-09T14:05:39;18.00;99.90
3925;DHT22;1977;52.274;10.518;2023-10-09T14:08:21;18.20;99.90
3925;DHT22;1977;52.274;10.518;2023-10-09T14:10:51;17.90;99.90
3925;DHT22;1977;52.274;10.518;2023-10-09T14:13:19;18.10;99.90
3925;DHT22;1977;52.274;10.518;2023-10-09T14:15:52;18.30;99.90
3925;DHT22;1977;52.274;10.518;2023-10-09T14:18:21;17.90;99.90
3925;DHT22;1977;52.274;10.518;2023-10-09T14:20:48;17.90;99.90
3925;DHT22;1977;52.274;10.518;2023-10-09T14:23:17;18.30;99.90
3925;DHT22;1977;52.274;10.518;2023-10-09T14:25:46;18.00;99.90
3925;DHT22;1977;52.274;10.518;2023-10-09T14:28:15;18.00;99.90
3925;DHT22;1977;52.274;10.518;2023-10-09T14:30:45;18.30;99.90
3925;DHT22;1977;52.274;10.518;2023-10-09T14:33:16;18.00;99.90
3925;DHT22;1977;52.274;10.518;2023-10-09T14:35:49;18.00;99.90
3925;DHT22;1977;52.274;10.518;2023-10-09T14:38:18;18.00;99.90
3925;DHT22;1977;52.274;10.518;2023-10-09T14:40:52;18.00;99.90
3925;DHT22;1977;52.274;10.518;2023-10-09T14:43:23;18.00;99.90
3925;DHT22;1977;52.274;10.518;2023-10-09T14:45:54;18.00;99.90
3925;DHT22;1977;52.274;10.518;2023-10-09T14:48:21;18.40;99.90
3925;DHT22;1977;52.274;10.518;2023-10-09T14:50:53;18.00;99.90
3925;DHT22;1977;52.274;10.518;2023-10-09T14:53:20;18.00;99.90
3925;DHT22;1977;52.274;10.518;2023-10-09T14:55:54;18.10;99.90
3925;DHT22;1977;52.274;10.518;2023-10-09T14:58:20;18.10;99.90
3925;DHT22;1977;52.274;10.518;2023-10-09T15:00:50;18.10;99.90
3925;DHT22;1977;52.274;10.518;2023-10-09T15:03:17;18.10;99.90
3925;DHT22;1977;52.274;10.518;2023-10-09T15:05:45;18.10;99.90
3925;DHT22;1977;52.274;10.518;2023-10-09T15:08:14;18.00;99.90
3925;DHT22;1977;52.274;10.518;2023-10-09T15:10:47;18.10;99.90
3925;DHT22;1977;52.274;10.518;2023-10-09T15:13:15;18.10;99.90
3925;DHT22;1977;52.274;10.518;2023-10-09T15:15:43;18.00;99.90
3925;DHT22;1977;52.274;10.518;2023-10-09T15:18:11;18.00;99.90
3925;DHT22;1977;52.274;10.518;2023-10-09T15:20:44;18.00;99.90
3925;DHT22;1977;52.274;10.518;2023-10-09T15:23:11;18.00;99.90
3925;DHT22;1977;52.274;10.518;2023-10-09T15:25:39;18.00;99.90
3925;DHT22;1977;52.274;10.518;2023-10-09T15:28:10;18.00;99.90
3925;DHT22;1977;52.274;10.518;2023-10-09T15:30:38;18.00;99.90
3925;DHT22;1977;52.274;10.518;2023-10-09T15:33:06;18.00;99.90
3925;DHT22;1977;52.274;10.518;2023-10-09T15:35:34;18.00;99.90
3925;DHT22;1977;52.274;10.518;2023-10-09T15:38:01;18.00;99.90
3925;DHT22;1977;52.274;10.518;2023-10-09T15:40:29;18.00;99.90
3925;DHT22;1977;52.274;10.518;2023-10-09T15:43:00;18.00;99.90
3925;DHT22;1977;52.274;10.518;2023-10-09T15:45:29;18.30;99.90
3925;DHT22;1977;52.274;10.518;2023-10-09T15:47:57;18.10;99.90
3925;DHT22;1977;52.274;10.518;2023-10-09T15:50:28;18.10;99.90
3925;DHT22;1977;52.274;10.518;2023-10-09T15:52:59;18.10;99.90
3925;DHT22;1977;52.274;10.518;2023-10-09T15:55:30;18.10;99.90
3925;DHT22;1977;52.274;10.518;2023-10-09T15:58:01;18.00;99.90
3925;DHT22;1977;52.274;10.518;2023-10-09T16:00:28;18.30;99.90
3925;DHT22;1977;52.274;10.518;2023-10-09T16:02:56;18.20;99.90
3925;DHT22;1977;52.274;10.518;2023-10-09T16:05:29;18.30;99.90
3925;DHT22;1977;52.274;10.518;2023-10-09T16:08:02;17.80;99.90
3925;DHT22;1977;52.274;10.518;2023-10-09T16:10:31;18.10;99.90
3925;DHT22;1977;52.274;10.518;2023-10-09T16:13:00;18.10;99.90
3925;DHT22;1977;52.274;10.518;2023-10-09T16:15:27;18.00;99.90
3925;DHT22;1977;52.274;10.518;2023-10-09T16:17:54;18.30;99.90
3925;DHT22;1977;52.274;10.518;2023-10-09T16:20:29;18.10;99.90
3925;DHT22;1977;52.274;10.518;2023-10-09T16:22:57;18.00;99.90